createdAt,value
2023-05-23T00:02:01.494Z,61.17
2023-05-23T00:12:06.448Z,60.98
2023-05-23T00:22:10.523Z,61.05
2023-05-23T00:32:28.582Z,61.11
2023-05-23T00:42:32.004Z,61.04
2023-05-23T00:52:36.154Z,61.07
2023-05-23T01:02:41.067Z,61.34
2023-05-23T01:12:46.448Z,61.28
2023-05-23T01:23:00.335Z,61.92
2023-05-23T01:33:05.211Z,62.50
2023-05-23T01:43:09.131Z,63.10
2023-05-23T01:53:13.786Z,63.71
2023-05-23T02:03:18.862Z,64.22
2023-05-23T02:13:23.121Z,64.66
2023-05-23T02:23:26.961Z,65.25
2023-05-23T02:33:31.077Z,65.61
2023-05-23T02:43:34.922Z,66.13
2023-05-23T02:53:39.185Z,66.24
2023-05-23T03:03:43.172Z,66.52
2023-05-23T03:13:47.028Z,66.77
2023-05-23T03:23:50.745Z,66.57
2023-05-23T03:33:54.431Z,66.38
2023-05-23T03:43:58.173Z,65.06
2023-05-23T03:54:01.958Z,63.77
2023-05-23T04:04:05.873Z,62.51
2023-05-23T04:14:10.622Z,60.81
2023-05-23T04:24:14.726Z,58.97
2023-05-23T04:34:21.730Z,56.73
2023-05-23T04:54:29.250Z,53.75
2023-05-23T05:04:36.685Z,52.45
2023-05-23T05:14:40.974Z,52.13
2023-05-23T05:24:44.522Z,51.29
2023-05-23T05:34:49.575Z,50.92
2023-05-23T05:44:53.767Z,50.28
2023-05-23T05:54:57.163Z,50.04
2023-05-23T06:05:00.778Z,49.62
2023-05-23T06:15:03.568Z,48.79
2023-05-23T06:25:08.769Z,48.40
2023-05-23T06:35:12.340Z,46.82
2023-05-23T06:45:27.255Z,46.47
2023-05-23T06:55:33.368Z,46.05
2023-05-23T07:05:40.936Z,44.36
2023-05-23T07:15:45.541Z,44.77
2023-05-23T07:26:01.007Z,43.80
2023-05-23T07:36:06.550Z,43.51
2023-05-23T07:46:10.509Z,42.96
2023-05-23T07:56:14.311Z,42.48
2023-05-23T08:06:21.669Z,41.41
2023-05-23T08:16:24.595Z,40.68
2023-05-23T08:26:34.218Z,39.58
2023-05-23T08:36:39.406Z,38.68
2023-05-23T08:46:44.454Z,38.43
2023-05-23T08:56:51.528Z,37.63
2023-05-23T09:06:55.555Z,37.01
2023-05-23T09:17:03.866Z,36.75
2023-05-23T09:27:08.732Z,36.45
2023-05-23T09:37:17.836Z,37.02
2023-05-23T09:47:21.630Z,36.79
2023-05-23T09:57:27.113Z,36.02
2023-05-23T10:07:31.174Z,36.66
2023-05-23T10:27:54.190Z,36.86
2023-05-23T10:38:01.565Z,36.54
2023-05-23T10:48:03.783Z,35.66
2023-05-23T10:58:10.176Z,35.48
2023-05-23T11:08:15.672Z,35.20
2023-05-23T11:18:22.118Z,35.49
2023-05-23T11:28:26.160Z,35.22
2023-05-23T11:38:31.010Z,35.57
2023-05-23T11:48:34.670Z,35.37
2023-05-23T11:58:39.696Z,35.23
2023-05-23T12:08:43.553Z,35.00
2023-05-23T12:18:49.621Z,35.12
2023-05-23T12:28:53.233Z,34.83
2023-05-23T12:39:03.861Z,34.49
2023-05-23T12:49:08.296Z,34.80
2023-05-23T12:59:12.310Z,35.20
2023-05-23T13:09:16.463Z,35.26
2023-05-23T13:19:20.137Z,36.05
2023-05-23T13:29:24.163Z,36.55
2023-05-23T13:39:28.212Z,38.23
2023-05-23T13:49:32.078Z,40.02
2023-05-23T13:59:36.313Z,40.66
2023-05-23T14:09:40.213Z,41.40
2023-05-23T14:19:48.432Z,41.95
2023-05-23T14:29:52.864Z,42.91
2023-05-23T14:39:55.876Z,43.85
2023-05-23T15:00:03.597Z,46.80
2023-05-23T15:10:08.182Z,47.20
2023-05-23T15:20:12.786Z,47.87
2023-05-23T15:30:20.244Z,48.02
2023-05-23T15:40:23.426Z,48.79
2023-05-23T15:50:31.325Z,49.71
2023-05-23T16:00:35.214Z,50.80
2023-05-23T16:10:38.857Z,51.62
2023-05-23T16:20:42.531Z,52.46
2023-05-23T16:40:49.904Z,53.78
2023-05-23T16:50:59.970Z,54.15
2023-05-23T17:01:03.949Z,54.35
2023-05-23T17:11:08.029Z,54.37
2023-05-23T17:21:14.596Z,54.46
2023-05-23T17:31:18.657Z,54.54
2023-05-23T17:41:22.620Z,54.80
2023-05-23T17:51:31.353Z,55.05
2023-05-23T18:01:35.868Z,55.39
2023-05-23T18:21:43.114Z,55.93
2023-05-23T18:31:47.243Z,56.19
2023-05-23T18:41:50.897Z,56.58
2023-05-23T18:51:54.805Z,57.04
2023-05-23T19:01:58.998Z,57.35
2023-05-23T19:12:03.076Z,58.03
2023-05-23T19:22:07.136Z,58.42
2023-05-23T19:32:15.307Z,59.02
2023-05-23T19:42:23.726Z,59.46
2023-05-23T19:52:27.363Z,60.09
2023-05-23T20:02:31.141Z,60.72
2023-05-23T20:12:35.344Z,61.15
2023-05-23T20:22:38.508Z,61.90
2023-05-23T20:32:44.993Z,62.43
2023-05-23T20:42:49.353Z,62.91
2023-05-23T20:52:54.435Z,63.32
2023-05-23T21:02:58.149Z,63.58
2023-05-23T21:13:02.270Z,63.95
2023-05-23T21:23:05.937Z,64.44
2023-05-23T21:33:09.680Z,64.82
2023-05-23T21:43:14.448Z,65.28
2023-05-23T21:53:18.147Z,65.49
2023-05-23T22:03:21.841Z,65.89
2023-05-23T22:13:27.980Z,66.02
2023-05-23T22:23:31.495Z,66.17
2023-05-23T22:33:34.894Z,66.38
2023-05-23T22:43:38.429Z,66.91
2023-05-23T22:53:42.752Z,67.10
2023-05-23T23:04:00.808Z,67.53
2023-05-23T23:14:03.952Z,67.68
2023-05-23T23:24:07.921Z,67.73
2023-05-23T23:34:11.515Z,67.94
2023-05-23T23:44:15.435Z,68.08
2023-05-23T23:54:21.706Z,68.21
